createdAt,value
2018-12-30T00:00:38.389Z,-2.10
2018-12-30T00:03:07.420Z,-2.00
2018-12-30T00:05:36.532Z,-2.00
2018-12-30T00:08:05.189Z,-2.00
2018-12-30T00:10:33.841Z,-2.10
2018-12-30T00:13:02.499Z,-2.20
2018-12-30T00:15:31.763Z,-2.20
2018-12-30T00:18:00.412Z,-2.20
2018-12-30T00:20:29.054Z,-2.20
2018-12-30T00:22:57.709Z,-2.20
2018-12-30T00:25:26.380Z,-2.20
2018-12-30T00:27:55.223Z,-2.20
2018-12-30T00:30:23.885Z,-2.20
2018-12-30T00:32:52.538Z,-2.20
2018-12-30T00:35:21.213Z,-2.30
2018-12-30T00:37:49.869Z,-2.30
2018-12-30T00:40:18.623Z,-2.30
2018-12-30T00:42:47.234Z,-2.30
2018-12-30T00:45:15.873Z,-2.30
2018-12-30T00:47:44.531Z,-2.30
2018-12-30T00:50:13.172Z,-2.30
2018-12-30T00:52:41.843Z,-2.20
2018-12-30T00:55:11.108Z,-2.20
2018-12-30T00:57:39.766Z,-2.20
2018-12-30T01:00:08.515Z,-2.20
2018-12-30T01:02:37.175Z,-2.20
2018-12-30T01:05:05.920Z,-2.20
2018-12-30T01:07:34.731Z,-2.20
2018-12-30T01:10:03.612Z,-2.10
2018-12-30T01:12:32.294Z,-2.20
2018-12-30T01:15:00.929Z,-2.20
2018-12-30T01:17:29.572Z,-2.30
2018-12-30T01:19:58.284Z,-2.20
2018-12-30T01:22:27.539Z,-2.30
2018-12-30T01:24:56.132Z,-2.20
2018-12-30T01:27:24.786Z,-2.30
2018-12-30T01:29:53.456Z,-2.30
2018-12-30T01:32:22.578Z,-2.30
2018-12-30T01:34:51.240Z,-2.30
2018-12-30T01:37:19.822Z,-2.30
2018-12-30T01:39:48.484Z,-2.30
2018-12-30T01:42:17.053Z,-2.30
2018-12-30T01:44:46.016Z,-2.40
2018-12-30T01:47:14.764Z,-2.40
2018-12-30T01:49:44.020Z,-2.50
2018-12-30T01:52:12.658Z,-2.50
2018-12-30T01:54:41.318Z,-2.50
2018-12-30T01:57:09.986Z,-2.40
2018-12-30T01:59:38.649Z,-2.40
2018-12-30T02:02:07.477Z,-2.40
2018-12-30T02:04:36.148Z,-2.40
2018-12-30T02:07:04.804Z,-2.40
2018-12-30T02:09:33.448Z,-2.30
2018-12-30T02:12:02.111Z,-2.30
2018-12-30T02:14:30.738Z,-2.40
2018-12-30T02:16:59.391Z,-2.50
2018-12-30T02:19:28.043Z,-2.50
2018-12-30T02:21:57.098Z,-2.50
2018-12-30T02:24:25.750Z,-2.50
2018-12-30T02:26:54.412Z,-2.50
2018-12-30T02:29:23.090Z,-2.50
2018-12-30T02:31:51.762Z,-2.60
2018-12-30T02:34:20.680Z,-2.60
2018-12-30T02:36:49.337Z,-2.60
2018-12-30T02:39:17.975Z,-2.60
2018-12-30T02:41:46.635Z,-2.60
2018-12-30T02:44:15.283Z,-2.60
2018-12-30T02:46:43.958Z,-2.60
2018-12-30T02:49:12.626Z,-2.60
2018-12-30T02:51:50.074Z,-2.60
2018-12-30T02:54:11.597Z,-2.60
2018-12-30T02:56:40.365Z,-2.70
2018-12-30T02:59:09.267Z,-2.80
2018-12-30T03:01:37.922Z,-2.90
2018-12-30T03:04:06.569Z,-2.80
2018-12-30T03:06:35.208Z,-2.90
2018-12-30T03:09:06.817Z,-2.90
2018-12-30T03:11:35.456Z,-3.00
2018-12-30T03:14:04.027Z,-3.00
2018-12-30T03:16:33.265Z,-3.00
2018-12-30T03:19:01.962Z,-3.10
2018-12-30T03:21:30.595Z,-3.10
2018-12-30T03:23:59.471Z,-3.10
2018-12-30T03:26:28.131Z,-3.10
2018-12-30T03:28:56.775Z,-3.00
2018-12-30T03:31:25.435Z,-3.10
2018-12-30T03:33:54.082Z,-3.20
2018-12-30T03:36:23.314Z,-3.30
2018-12-30T03:38:51.974Z,-3.30
2018-12-30T03:41:20.616Z,-3.30
2018-12-30T03:43:49.282Z,-3.30
2018-12-30T03:46:17.925Z,-3.30
2018-12-30T03:48:46.566Z,-3.40
2018-12-30T03:51:15.216Z,-3.40
2018-12-30T03:53:43.851Z,-3.40
2018-12-30T03:56:12.509Z,-3.30
2018-12-30T03:58:41.154Z,-3.40
2018-12-30T04:01:09.842Z,-3.40
2018-12-30T04:03:38.493Z,-3.50
2018-12-30T04:06:07.129Z,-3.60
2018-12-30T04:08:35.725Z,-3.60
2018-12-30T04:11:04.389Z,-3.60
2018-12-30T04:13:33.060Z,-3.60
2018-12-30T04:16:01.712Z,-3.60
2018-12-30T04:18:30.375Z,-3.60
2018-12-30T04:20:59.032Z,-3.60
2018-12-30T04:23:27.657Z,-3.60
2018-12-30T04:25:56.357Z,-3.60
2018-12-30T04:28:24.995Z,-3.70
2018-12-30T04:30:53.657Z,-3.60
2018-12-30T04:33:22.306Z,-3.70
2018-12-30T04:35:50.981Z,-3.70
2018-12-30T04:38:20.158Z,-3.70
2018-12-30T04:40:48.801Z,-3.70
2018-12-30T04:43:17.451Z,-3.70
2018-12-30T04:45:46.100Z,-3.80
2018-12-30T04:48:16.335Z,-3.80
2018-12-30T04:50:45.420Z,-3.80
2018-12-30T04:53:14.069Z,-3.80
2018-12-30T04:55:42.725Z,-3.80
2018-12-30T04:58:11.349Z,-3.80
2018-12-30T05:00:40.037Z,-3.70
2018-12-30T05:03:08.695Z,-3.70
2018-12-30T05:05:37.354Z,-3.80
2018-12-30T05:08:06.013Z,-3.80
2018-12-30T05:10:34.667Z,-3.80
2018-12-30T05:13:03.347Z,-3.80
2018-12-30T05:15:32.002Z,-3.70
2018-12-30T05:18:00.696Z,-3.80
2018-12-30T05:20:29.421Z,-3.80
2018-12-30T05:22:58.059Z,-3.80
2018-12-30T05:25:26.715Z,-3.80
2018-12-30T05:27:55.288Z,-3.80
2018-12-30T05:30:23.949Z,-3.80
2018-12-30T05:32:52.616Z,-3.80
2018-12-30T05:35:21.290Z,-3.80
2018-12-30T05:37:49.953Z,-3.90
2018-12-30T05:40:18.594Z,-3.90
2018-12-30T05:42:47.255Z,-3.80
2018-12-30T05:45:15.895Z,-3.80
2018-12-30T05:47:44.566Z,-3.80
2018-12-30T05:50:13.220Z,-3.80
2018-12-30T05:52:42.293Z,-3.80
2018-12-30T05:55:11.216Z,-3.80
2018-12-30T05:57:39.858Z,-3.80
2018-12-30T06:00:08.911Z,-3.80
2018-12-30T06:02:37.589Z,-3.80
2018-12-30T06:05:07.835Z,-3.80
2018-12-30T06:07:36.521Z,-3.70
2018-12-30T06:10:05.472Z,-3.70
2018-12-30T06:12:34.138Z,-3.70
2018-12-30T06:15:03.026Z,-3.80
2018-12-30T06:17:31.676Z,-3.80
2018-12-30T06:20:00.381Z,-3.80
2018-12-30T06:22:29.028Z,-3.70
2018-12-30T06:24:57.663Z,-3.70
2018-12-30T06:27:26.353Z,-3.80
2018-12-30T06:29:55.011Z,-3.80
2018-12-30T06:32:23.681Z,-3.80
2018-12-30T06:34:52.336Z,-3.80
2018-12-30T06:37:20.988Z,-3.80
2018-12-30T06:39:49.622Z,-3.80
2018-12-30T06:42:18.274Z,-3.70
2018-12-30T06:44:46.957Z,-3.70
2018-12-30T06:47:15.615Z,-3.80
2018-12-30T06:49:44.313Z,-3.80
2018-12-30T06:52:12.892Z,-3.80
2018-12-30T06:54:41.581Z,-3.80
2018-12-30T06:57:10.577Z,-3.80
2018-12-30T06:59:42.133Z,-3.70
2018-12-30T07:02:11.469Z,-3.60
2018-12-30T07:04:40.136Z,-3.60
2018-12-30T07:07:08.897Z,-3.60
2018-12-30T07:09:37.546Z,-3.60
2018-12-30T07:12:06.213Z,-3.70
2018-12-30T07:14:34.868Z,-3.60
2018-12-30T07:17:03.520Z,-3.60
2018-12-30T07:19:32.180Z,-3.70
2018-12-30T07:22:00.834Z,-3.60
2018-12-30T07:24:31.157Z,-3.70
2018-12-30T07:26:59.859Z,-3.60
2018-12-30T07:29:28.500Z,-3.70
2018-12-30T07:31:57.142Z,-3.70
2018-12-30T07:34:25.783Z,-3.70
2018-12-30T07:36:54.442Z,-3.70
2018-12-30T07:39:23.138Z,-3.80
2018-12-30T07:41:51.781Z,-3.80
2018-12-30T07:44:20.442Z,-3.80
2018-12-30T07:46:49.110Z,-3.80
2018-12-30T07:49:17.791Z,-3.70
2018-12-30T07:51:46.429Z,-3.70
2018-12-30T07:54:15.053Z,-3.70
2018-12-30T07:56:43.736Z,-3.70
2018-12-30T07:59:12.401Z,-3.60
2018-12-30T08:01:41.077Z,-3.60
2018-12-30T08:04:09.873Z,-3.40
2018-12-30T08:06:38.524Z,-3.40
2018-12-30T08:09:07.718Z,-3.40
2018-12-30T08:11:36.483Z,-3.40
2018-12-30T08:14:05.255Z,-3.40
2018-12-30T08:16:34.025Z,-3.30
2018-12-30T08:19:02.804Z,-3.40
2018-12-30T08:21:31.521Z,-3.50
2018-12-30T08:24:00.200Z,-3.30
2018-12-30T08:26:28.926Z,-3.30
2018-12-30T08:28:57.566Z,-3.30
2018-12-30T08:31:26.219Z,-3.30
2018-12-30T08:33:54.918Z,-3.40
2018-12-30T08:36:25.174Z,-3.30
2018-12-30T08:38:53.833Z,-3.30
2018-12-30T08:41:22.720Z,-3.20
2018-12-30T08:43:51.474Z,-3.20
2018-12-30T08:46:20.109Z,-3.30
2018-12-30T08:48:49.746Z,-3.30
2018-12-30T08:51:18.711Z,-3.30
2018-12-30T08:53:47.499Z,-3.20
2018-12-30T08:56:16.197Z,-3.00
2018-12-30T08:58:46.173Z,-2.80
2018-12-30T09:01:14.830Z,-3.20
2018-12-30T09:03:43.518Z,-3.20
2018-12-30T09:06:12.180Z,-3.30
2018-12-30T09:08:40.869Z,-3.30
2018-12-30T09:11:09.512Z,-3.10
2018-12-30T09:13:41.177Z,-3.10
2018-12-30T09:16:09.824Z,-3.30
2018-12-30T09:18:38.490Z,-3.40
2018-12-30T09:21:07.160Z,-3.20
2018-12-30T09:23:37.526Z,-3.20
2018-12-30T09:26:06.168Z,-3.40
2018-12-30T09:28:34.822Z,-3.40
2018-12-30T09:31:03.478Z,-3.40
2018-12-30T09:33:32.128Z,-3.40
2018-12-30T09:36:00.778Z,-3.40
2018-12-30T09:38:29.400Z,-3.40
2018-12-30T09:40:58.050Z,-3.40
2018-12-30T09:43:26.708Z,-3.30
2018-12-30T09:45:55.397Z,-3.10
2018-12-30T09:48:24.069Z,-3.10
2018-12-30T09:50:52.721Z,-3.00
2018-12-30T09:53:21.403Z,-3.10
2018-12-30T09:55:50.118Z,-3.10
2018-12-30T09:58:18.805Z,-3.00
2018-12-30T10:00:47.619Z,-3.00
2018-12-30T10:03:16.313Z,-2.90
2018-12-30T10:05:45.227Z,-3.10
2018-12-30T10:08:13.832Z,-3.00
2018-12-30T10:10:42.469Z,-3.00
2018-12-30T10:13:11.149Z,-3.00
2018-12-30T10:15:39.813Z,-3.00
2018-12-30T10:18:08.499Z,-3.10
2018-12-30T10:20:37.147Z,-3.00
2018-12-30T10:23:05.799Z,-2.90
2018-12-30T10:25:34.456Z,-3.00
2018-12-30T10:28:03.104Z,-3.00
2018-12-30T10:30:32.021Z,-3.10
2018-12-30T10:33:00.678Z,-3.10
2018-12-30T10:35:29.353Z,-3.10
2018-12-30T10:37:58.003Z,-3.00
2018-12-30T10:40:26.675Z,-3.00
2018-12-30T10:42:55.367Z,-3.10
2018-12-30T10:45:24.024Z,-3.10
2018-12-30T10:47:52.675Z,-3.00
2018-12-30T10:50:21.342Z,-2.90
2018-12-30T10:52:49.987Z,-2.90
2018-12-30T10:55:19.094Z,-2.80
2018-12-30T10:57:47.761Z,-2.80
2018-12-30T11:00:16.386Z,-2.90
2018-12-30T11:02:46.589Z,-2.90
2018-12-30T11:05:15.222Z,-3.00
2018-12-30T11:07:44.163Z,-3.00
2018-12-30T11:10:12.804Z,-3.10
2018-12-30T11:12:41.462Z,-3.10
2018-12-30T11:15:10.120Z,-3.00
2018-12-30T11:17:38.773Z,-3.00
2018-12-30T11:20:07.543Z,-2.90
2018-12-30T11:22:36.193Z,-2.90
2018-12-30T11:25:05.389Z,-2.90
2018-12-30T11:27:34.034Z,-2.90
2018-12-30T11:30:02.700Z,-2.80
2018-12-30T11:32:31.355Z,-2.90
2018-12-30T11:35:02.364Z,-3.00
2018-12-30T11:37:31.026Z,-3.20
2018-12-30T11:39:59.704Z,-3.10
2018-12-30T11:42:28.402Z,-3.10
2018-12-30T11:44:57.109Z,-2.90
2018-12-30T11:47:25.781Z,-3.10
2018-12-30T11:49:55.421Z,-3.10
2018-12-30T11:52:24.069Z,-3.10
2018-12-30T11:54:52.728Z,-3.20
2018-12-30T11:57:21.403Z,-3.20
2018-12-30T11:59:50.091Z,-3.30
2018-12-30T12:02:23.942Z,-3.40
2018-12-30T12:04:49.072Z,-3.30
2018-12-30T12:07:17.724Z,-3.30
2018-12-30T12:09:46.394Z,-3.20
2018-12-30T12:12:15.050Z,-3.10
2018-12-30T12:14:43.705Z,-3.10
2018-12-30T12:17:12.885Z,-3.10
2018-12-30T12:19:41.553Z,-3.10
2018-12-30T12:22:10.227Z,-3.20
2018-12-30T12:24:38.897Z,-3.20
2018-12-30T12:27:07.549Z,-3.20
2018-12-30T12:29:36.187Z,-3.20
2018-12-30T12:32:04.834Z,-3.30
2018-12-30T12:34:33.559Z,-3.20
2018-12-30T12:37:02.214Z,-3.20
2018-12-30T12:39:30.869Z,-3.30
2018-12-30T12:41:59.503Z,-3.30
2018-12-30T12:44:28.171Z,-3.40
2018-12-30T12:46:57.408Z,-3.40
2018-12-30T12:49:26.049Z,-3.50
2018-12-30T12:51:54.719Z,-3.50
2018-12-30T12:54:23.461Z,-3.50
2018-12-30T12:56:52.117Z,-3.50
2018-12-30T12:59:21.139Z,-3.50
2018-12-30T13:01:49.824Z,-3.50
2018-12-30T13:04:18.468Z,-3.50
2018-12-30T13:06:47.146Z,-3.60
2018-12-30T13:09:15.785Z,-3.60
2018-12-30T13:11:44.462Z,-3.60
2018-12-30T13:14:13.128Z,-3.50
2018-12-30T13:16:41.826Z,-3.50
2018-12-30T13:19:10.482Z,-3.50
2018-12-30T13:21:39.322Z,-3.60
2018-12-30T13:24:07.972Z,-3.70
2018-12-30T13:26:36.644Z,-3.70
2018-12-30T13:29:05.304Z,-3.80
2018-12-30T13:31:33.952Z,-3.80
2018-12-30T13:34:03.050Z,-3.70
2018-12-30T13:36:31.697Z,-3.70
2018-12-30T13:39:00.352Z,-3.70
2018-12-30T13:41:28.984Z,-3.70
2018-12-30T13:43:57.657Z,-3.80
2018-12-30T13:46:26.335Z,-3.80
2018-12-30T13:48:54.979Z,-3.80
2018-12-30T13:51:24.158Z,-3.80
2018-12-30T13:53:52.816Z,-3.90
2018-12-30T13:56:21.483Z,-3.80
2018-12-30T13:58:50.127Z,-3.80
2018-12-30T14:01:18.790Z,-3.80
2018-12-30T14:03:47.452Z,-3.90
2018-12-30T14:06:16.101Z,-3.90
2018-12-30T14:08:44.813Z,-4.00
2018-12-30T14:11:13.448Z,-4.00
2018-12-30T14:13:42.091Z,-3.90
2018-12-30T14:16:10.757Z,-4.00
2018-12-30T14:18:39.395Z,-4.00
2018-12-30T14:21:08.040Z,-4.00
2018-12-30T14:23:36.702Z,-4.10
2018-12-30T14:26:05.771Z,-4.10
2018-12-30T14:28:34.418Z,-4.10
2018-12-30T14:31:03.100Z,-4.00
2018-12-30T14:33:31.693Z,-4.00
2018-12-30T14:36:00.338Z,-4.00
2018-12-30T14:38:29.005Z,-4.00
2018-12-30T14:40:57.637Z,-4.00
2018-12-30T14:43:26.366Z,-4.00
2018-12-30T14:45:55.027Z,-4.10
2018-12-30T14:48:23.690Z,-4.10
2018-12-30T14:50:52.344Z,-4.10
2018-12-30T14:53:20.998Z,-4.10
2018-12-30T14:55:49.658Z,-4.10
2018-12-30T14:58:18.378Z,-4.20
2018-12-30T15:00:47.726Z,-4.20
2018-12-30T15:03:16.625Z,-4.10
2018-12-30T15:05:45.267Z,-4.20
2018-12-30T15:08:13.936Z,-4.20
2018-12-30T15:10:42.615Z,-4.10
2018-12-30T15:13:11.258Z,-4.00
2018-12-30T15:15:39.892Z,-4.00
2018-12-30T15:18:08.880Z,-4.00
2018-12-30T15:20:37.532Z,-4.10
2018-12-30T15:23:06.180Z,-4.10
2018-12-30T15:25:34.866Z,-4.10
2018-12-30T15:28:03.518Z,-4.10
2018-12-30T15:30:32.151Z,-4.10
2018-12-30T15:33:01.987Z,-4.10
2018-12-30T15:35:30.619Z,-4.00
2018-12-30T15:37:59.255Z,-4.00
2018-12-30T15:40:27.899Z,-4.00
2018-12-30T15:42:59.381Z,-4.00
2018-12-30T15:45:28.040Z,-4.10
2018-12-30T15:47:56.692Z,-4.10
2018-12-30T15:50:25.346Z,-4.10
2018-12-30T15:52:54.272Z,-4.00
2018-12-30T15:55:24.523Z,-4.00
2018-12-30T15:57:53.210Z,-4.00
2018-12-30T16:00:22.018Z,-4.00
2018-12-30T16:02:50.689Z,-4.20
2018-12-30T16:05:21.778Z,-4.20
2018-12-30T16:07:50.445Z,-4.10
2018-12-30T16:10:19.398Z,-4.10
2018-12-30T16:12:49.868Z,-4.10
2018-12-30T16:15:18.543Z,-4.10
2018-12-30T16:17:48.745Z,-4.10
2018-12-30T16:20:17.455Z,-4.20
2018-12-30T16:22:46.098Z,-4.10
2018-12-30T16:25:14.786Z,-4.20
2018-12-30T16:27:43.759Z,-4.20
2018-12-30T16:30:12.398Z,-4.20
2018-12-30T16:32:41.052Z,-4.20
2018-12-30T16:35:09.708Z,-4.20
2018-12-30T16:37:38.372Z,-4.40
2018-12-30T16:40:07.048Z,-4.30
2018-12-30T16:42:35.728Z,-4.30
2018-12-30T16:45:05.438Z,-4.40
2018-12-30T16:47:41.584Z,-4.30
2018-12-30T16:50:06.094Z,-4.40
2018-12-30T16:52:34.757Z,-4.30
2018-12-30T16:55:03.481Z,-4.40
2018-12-30T16:57:32.146Z,-4.40
2018-12-30T17:00:00.924Z,-4.30
2018-12-30T17:02:31.205Z,-4.30
2018-12-30T17:04:59.943Z,-4.30
2018-12-30T17:07:28.598Z,-4.30
2018-12-30T17:09:57.240Z,-4.30
2018-12-30T17:12:25.894Z,-4.30
2018-12-30T17:14:54.592Z,-4.30
2018-12-30T17:17:23.244Z,-4.20
2018-12-30T17:19:52.586Z,-4.20
2018-12-30T17:22:21.277Z,-4.20
2018-12-30T17:24:50.661Z,-4.20
2018-12-30T17:27:19.560Z,-4.20
2018-12-30T17:29:48.463Z,-4.20
2018-12-30T17:32:17.121Z,-4.30
2018-12-30T17:34:45.774Z,-4.40
2018-12-30T17:37:14.645Z,-4.40
2018-12-30T17:39:43.315Z,-4.30
2018-12-30T17:42:11.969Z,-4.30
2018-12-30T17:44:40.617Z,-4.30
2018-12-30T17:47:09.294Z,-4.30
2018-12-30T17:49:37.950Z,-4.30
2018-12-30T17:52:06.591Z,-4.30
2018-12-30T17:54:35.332Z,-4.20
2018-12-30T17:57:03.941Z,-4.20
2018-12-30T17:59:32.607Z,-4.20
2018-12-30T18:02:01.275Z,-4.20
2018-12-30T18:04:29.924Z,-4.30
2018-12-30T18:06:58.585Z,-4.30
2018-12-30T18:09:27.255Z,-4.30
2018-12-30T18:11:55.958Z,-4.30
2018-12-30T18:14:24.621Z,-4.30
2018-12-30T18:16:53.281Z,-4.30
2018-12-30T18:19:21.950Z,-4.30
2018-12-30T18:21:50.675Z,-4.30
2018-12-30T18:24:19.459Z,-4.40
2018-12-30T18:26:48.104Z,-4.30
2018-12-30T18:29:17.320Z,-4.20
2018-12-30T18:31:45.981Z,-4.30
2018-12-30T18:34:16.201Z,-4.20
2018-12-30T18:36:44.854Z,-4.30
2018-12-30T18:39:13.519Z,-4.30
2018-12-30T18:41:42.298Z,-4.30
2018-12-30T18:44:11.137Z,-4.20
2018-12-30T18:46:40.590Z,-4.20
2018-12-30T18:49:10.775Z,-4.20
2018-12-30T18:52:49.966Z,-4.20
2018-12-30T18:55:18.631Z,-4.20
2018-12-30T18:57:48.873Z,-4.20
2018-12-30T19:00:22.188Z,-4.20
2018-12-30T19:02:53.664Z,-4.10
2018-12-30T19:05:22.908Z,-4.10
2018-12-30T19:07:51.548Z,-4.10
2018-12-30T19:10:20.259Z,-4.00
2018-12-30T19:12:48.930Z,-4.00
2018-12-30T19:15:17.603Z,-4.10
2018-12-30T19:17:46.706Z,-4.20
2018-12-30T19:20:15.352Z,-4.10
2018-12-30T19:22:44.084Z,-4.10
2018-12-30T19:25:12.751Z,-4.20
2018-12-30T19:27:41.425Z,-4.20
2018-12-30T19:30:11.344Z,-4.20
2018-12-30T19:32:40.042Z,-4.20
2018-12-30T19:35:08.767Z,-4.20
2018-12-30T19:37:37.460Z,-4.20
2018-12-30T19:40:09.086Z,-4.20
2018-12-30T19:42:37.787Z,-4.20
2018-12-30T19:45:07.034Z,-4.10
2018-12-30T19:47:35.705Z,-4.10
2018-12-30T19:50:06.299Z,-4.10
2018-12-30T19:52:34.979Z,-4.10
2018-12-30T19:55:03.991Z,-4.10
2018-12-30T19:57:32.656Z,-4.20
2018-12-30T20:00:01.312Z,-4.20
2018-12-30T20:02:29.970Z,-4.20
2018-12-30T20:04:58.736Z,-4.30
2018-12-30T20:07:31.223Z,-4.30
2018-12-30T20:10:01.506Z,-4.30
2018-12-30T20:12:30.152Z,-4.30
2018-12-30T20:14:58.851Z,-4.30
2018-12-30T20:17:27.523Z,-4.30
2018-12-30T20:19:56.603Z,-4.30
2018-12-30T20:22:25.286Z,-4.20
2018-12-30T20:24:53.999Z,-4.10
2018-12-30T20:27:22.701Z,-4.10
2018-12-30T20:29:51.353Z,-4.10
2018-12-30T20:32:20.656Z,-4.10
2018-12-30T20:34:49.324Z,-4.20
2018-12-30T20:37:17.993Z,-4.10
2018-12-30T20:39:49.677Z,-4.10
2018-12-30T20:42:18.335Z,-4.20
2018-12-30T20:44:47.282Z,-4.10
2018-12-30T20:47:15.936Z,-4.10
2018-12-30T20:49:47.277Z,-4.10
2018-12-30T20:52:16.903Z,-4.20
2018-12-30T20:54:45.573Z,-4.20
2018-12-30T20:57:14.569Z,-4.10
2018-12-30T20:59:43.288Z,-4.10
2018-12-30T21:02:11.945Z,-4.20
2018-12-30T21:04:40.596Z,-4.20
2018-12-30T21:07:10.118Z,-4.20
2018-12-30T21:09:40.536Z,-4.20
2018-12-30T21:12:09.202Z,-4.10
2018-12-30T21:14:37.864Z,-4.10
2018-12-30T21:17:06.555Z,-4.10
2018-12-30T21:19:35.214Z,-4.10
2018-12-30T21:22:04.214Z,-4.10
2018-12-30T21:24:32.918Z,-4.10
2018-12-30T21:27:01.604Z,-4.20
2018-12-30T21:29:30.333Z,-4.20
2018-12-30T21:31:58.991Z,-4.20
2018-12-30T21:34:27.696Z,-4.10
2018-12-30T21:36:56.380Z,-4.10
2018-12-30T21:39:25.392Z,-4.00
2018-12-30T21:41:54.028Z,-4.10
2018-12-30T21:44:22.731Z,-4.10
2018-12-30T21:46:51.448Z,-4.00
2018-12-30T21:49:20.102Z,-4.00
2018-12-30T21:51:48.783Z,-4.00
2018-12-30T21:54:17.432Z,-4.00
2018-12-30T21:56:46.131Z,-3.90
2018-12-30T21:59:15.047Z,-3.90
2018-12-30T22:01:43.744Z,-4.00
2018-12-30T22:04:12.413Z,-4.00
2018-12-30T22:06:41.062Z,-4.00
2018-12-30T22:09:09.785Z,-4.00
2018-12-30T22:11:38.854Z,-4.00
2018-12-30T22:14:07.515Z,-4.00
2018-12-30T22:16:36.180Z,-4.00
2018-12-30T22:19:04.849Z,-4.00
2018-12-30T22:21:33.529Z,-4.00
2018-12-30T22:24:02.222Z,-4.00
2018-12-30T22:26:31.046Z,-4.00
2018-12-30T22:28:59.740Z,-4.00
2018-12-30T22:31:28.396Z,-4.00
2018-12-30T22:33:57.052Z,-3.90
2018-12-30T22:36:26.057Z,-4.00
2018-12-30T22:38:54.721Z,-4.00
2018-12-30T22:41:23.343Z,-4.00
2018-12-30T22:43:52.081Z,-4.00
2018-12-30T22:46:20.767Z,-4.00
2018-12-30T22:48:49.524Z,-4.00
2018-12-30T22:51:18.169Z,-4.10
2018-12-30T22:53:46.840Z,-4.10
2018-12-30T22:56:15.478Z,-4.10
2018-12-30T22:58:44.126Z,-4.10
2018-12-30T23:01:13.536Z,-4.10
2018-12-30T23:03:42.178Z,-4.10
2018-12-30T23:06:10.841Z,-4.00
2018-12-30T23:08:39.505Z,-4.10
2018-12-30T23:11:08.185Z,-4.10
2018-12-30T23:13:37.325Z,-4.10
2018-12-30T23:16:05.979Z,-4.10
2018-12-30T23:18:34.640Z,-4.00
2018-12-30T23:21:03.302Z,-4.00
2018-12-30T23:23:31.974Z,-4.10
2018-12-30T23:26:00.660Z,-4.10
2018-12-30T23:28:29.338Z,-4.00
2018-12-30T23:30:57.989Z,-4.00
2018-12-30T23:33:26.633Z,-4.00
2018-12-30T23:35:55.280Z,-4.00
2018-12-30T23:38:23.970Z,-4.10
2018-12-30T23:40:52.594Z,-4.10
2018-12-30T23:43:21.176Z,-4.00
2018-12-30T23:45:49.848Z,-4.00
2018-12-30T23:48:20.155Z,-4.00
2018-12-30T23:50:48.951Z,-4.10
2018-12-30T23:53:17.596Z,-4.10
2018-12-30T23:55:46.249Z,-4.00
2018-12-30T23:58:14.926Z,-4.10
